createdAt,value
2023-01-20T00:00:15.890Z,100477.47
2023-01-20T00:00:39.555Z,100482.69
2023-01-20T00:01:02.955Z,100486.31
2023-01-20T00:01:26.984Z,100478.41
2023-01-20T00:01:49.737Z,100479.28
2023-01-20T00:02:11.571Z,100471.53
2023-01-20T00:02:33.368Z,100474.97
2023-01-20T00:02:55.713Z,100469.00
2023-01-20T00:03:17.592Z,100457.72
2023-01-20T00:03:41.041Z,100479.44
2023-01-20T00:04:03.978Z,100460.28
2023-01-20T00:04:25.744Z,100429.03
2023-01-20T00:04:48.307Z,100471.72
2023-01-20T00:05:11.862Z,100434.28
2023-01-20T00:05:34.606Z,100482.06
2023-01-20T00:05:57.856Z,100406.38
2023-01-20T00:06:20.595Z,100472.47
2023-01-20T00:06:46.575Z,100474.06
2023-01-20T00:07:08.503Z,100480.16
2023-01-20T00:07:30.347Z,100452.28
2023-01-20T00:07:52.164Z,100437.47
2023-01-20T00:08:15.059Z,100481.88
2023-01-20T00:08:36.861Z,100478.34
2023-01-20T00:09:00.497Z,100478.34
2023-01-20T00:09:23.585Z,100481.84
2023-01-20T00:09:45.447Z,100473.16
2023-01-20T00:10:08.598Z,100414.00
2023-01-20T00:10:30.309Z,100480.09
2023-01-20T00:10:52.137Z,100483.63
2023-01-20T00:11:14.950Z,100480.09
2023-01-20T00:11:38.145Z,100440.19
2023-01-20T00:12:00.543Z,100421.88
2023-01-20T00:12:22.843Z,100484.44
2023-01-20T00:12:45.576Z,100487.06
2023-01-20T00:13:07.185Z,100482.69
2023-01-20T00:13:28.999Z,100480.03
2023-01-20T00:13:55.014Z,100474.84
2023-01-20T00:14:17.159Z,100472.31
2023-01-20T00:14:40.328Z,100466.13
2023-01-20T00:15:04.166Z,100487.13
2023-01-20T00:15:26.709Z,100488.00
2023-01-20T00:15:48.767Z,100360.94
2023-01-20T00:16:16.160Z,100421.81
2023-01-20T00:16:37.890Z,100482.66
2023-01-20T00:17:00.195Z,100481.78
2023-01-20T00:17:23.601Z,100487.91
2023-01-20T00:17:50.849Z,100480.91
2023-01-20T00:18:15.498Z,100485.31
2023-01-20T00:18:40.986Z,100474.00
2023-01-20T00:19:08.465Z,100475.72
2023-01-20T00:19:39.619Z,100469.63
2023-01-20T00:20:06.255Z,100484.44
2023-01-20T00:20:29.268Z,100496.78
2023-01-20T00:20:52.469Z,100493.28
2023-01-20T00:21:20.251Z,100487.16
2023-01-20T00:22:26.188Z,100483.75
2023-01-20T00:22:52.056Z,100496.13
2023-01-20T00:23:18.248Z,100483.03
2023-01-20T00:23:43.188Z,100492.69
2023-01-20T00:24:07.735Z,100487.41
2023-01-20T00:24:31.884Z,100486.53
2023-01-20T00:24:57.335Z,100491.81
2023-01-20T00:25:26.628Z,100490.88
2023-01-20T00:25:49.355Z,100489.09
2023-01-20T00:26:21.280Z,100489.97
2023-01-20T00:26:49.004Z,100475.28
2023-01-20T00:27:11.689Z,100492.69
2023-01-20T00:27:42.405Z,100493.59
2023-01-20T00:28:08.216Z,100480.53
2023-01-20T00:28:35.214Z,100488.38
2023-01-20T00:29:00.857Z,100490.09
2023-01-20T00:29:24.657Z,100455.31
2023-01-20T00:29:52.669Z,100483.09
2023-01-20T00:30:15.217Z,100480.50
2023-01-20T00:30:39.836Z,100492.66
2023-01-20T00:31:15.760Z,100489.09
2023-01-20T00:31:50.492Z,100501.31
2023-01-20T00:32:16.647Z,100511.84
2023-01-20T00:32:44.991Z,100496.94
2023-01-20T00:33:20.009Z,100509.22
2023-01-20T00:33:46.980Z,100500.44
2023-01-20T00:34:14.266Z,100502.19
2023-01-20T00:34:46.659Z,100498.69
2023-01-20T00:35:11.706Z,100492.69
2023-01-20T00:35:34.274Z,100485.66
2023-01-20T00:36:11.034Z,100455.31
2023-01-20T00:36:47.034Z,100483.94
2023-01-20T00:37:11.275Z,100500.50
2023-01-20T00:37:34.219Z,100504.03
2023-01-20T00:38:07.473Z,100503.09
2023-01-20T00:38:29.105Z,100499.63
2023-01-20T00:38:51.887Z,100484.88
2023-01-20T00:39:14.534Z,100499.66
2023-01-20T00:39:36.373Z,100504.03
2023-01-20T00:39:58.529Z,100504.03
2023-01-20T00:40:20.720Z,100502.28
2023-01-20T00:40:43.874Z,100480.47
2023-01-20T00:41:06.123Z,100504.09
2023-01-20T00:41:27.851Z,100504.09
2023-01-20T00:41:51.898Z,100478.88
2023-01-20T00:42:13.799Z,100496.16
2023-01-20T00:42:35.670Z,100495.34
2023-01-20T00:42:57.452Z,100503.16
2023-01-20T00:43:19.347Z,100501.38
2023-01-20T00:43:42.362Z,100436.97
2023-01-20T00:44:04.773Z,100509.22
2023-01-20T00:44:26.508Z,100484.06
2023-01-20T00:44:50.095Z,100490.06
2023-01-20T00:45:15.113Z,100511.00
2023-01-20T00:45:39.782Z,100508.41
2023-01-20T00:46:02.009Z,100508.34
2023-01-20T00:46:24.996Z,100506.59
2023-01-20T00:46:47.760Z,100508.34
2023-01-20T00:47:09.821Z,100516.25
2023-01-20T00:47:31.876Z,100514.56
2023-01-20T00:47:53.866Z,100510.16
2023-01-20T00:48:15.790Z,100512.81
2023-01-20T00:48:41.050Z,100513.69
2023-01-20T00:49:07.882Z,100516.25
2023-01-20T00:49:56.059Z,100505.84
2023-01-20T00:50:26.766Z,100513.63
2023-01-20T00:50:48.680Z,100522.38
2023-01-20T00:51:15.209Z,100512.72
2023-01-20T00:51:42.389Z,100514.50
2023-01-20T00:52:05.734Z,100483.25
2023-01-20T00:52:35.148Z,100512.72
2023-01-20T00:53:10.317Z,100524.09
2023-01-20T00:53:40.258Z,100511.00
2023-01-20T00:54:06.480Z,100519.75
2023-01-20T00:54:30.651Z,100518.03
2023-01-20T00:54:58.211Z,100522.38
2023-01-20T00:55:27.354Z,100520.63
2023-01-20T00:55:55.992Z,100516.31
2023-01-20T00:56:33.107Z,100517.13
2023-01-20T00:57:34.864Z,100518.16
2023-01-20T00:58:01.861Z,100522.56
2023-01-20T00:58:34.423Z,100521.69
2023-01-20T00:59:09.784Z,100516.41
2023-01-20T00:59:36.502Z,100472.06
2023-01-20T01:00:25.324Z,100525.19
2023-01-20T01:00:55.296Z,100526.06
2023-01-20T01:01:24.343Z,100508.66
2023-01-20T01:01:53.197Z,100522.50
2023-01-20T01:02:31.172Z,100497.25
2023-01-20T01:03:14.271Z,100516.47
2023-01-20T01:03:40.418Z,100525.19
2023-01-20T01:04:03.613Z,100522.50
2023-01-20T01:04:31.887Z,100526.91
2023-01-20T01:05:19.933Z,100513.84
2023-01-20T01:06:05.066Z,100525.09
2023-01-20T01:06:29.602Z,100523.38
2023-01-20T01:07:13.846Z,100526.00
2023-01-20T01:07:41.384Z,100530.38
2023-01-20T01:08:05.837Z,100528.63
2023-01-20T01:08:33.932Z,100506.75
2023-01-20T01:09:03.115Z,100523.34
2023-01-20T01:09:26.489Z,100526.91
2023-01-20T01:09:49.653Z,100525.13
2023-01-20T01:10:14.675Z,100533.91
2023-01-20T01:10:40.677Z,100524.31
2023-01-20T01:11:05.171Z,100533.19
2023-01-20T01:11:27.915Z,100512.25
2023-01-20T01:11:51.150Z,100526.19
2023-01-20T01:12:22.602Z,100527.97
2023-01-20T01:12:54.277Z,100528.84
2023-01-20T01:13:20.604Z,100530.59
2023-01-20T01:13:47.366Z,100531.47
2023-01-20T01:14:21.959Z,100528.88
2023-01-20T01:14:49.323Z,100529.75
2023-01-20T01:15:18.116Z,100528.88
2023-01-20T01:15:51.214Z,100526.28
2023-01-20T01:16:17.478Z,100529.78
2023-01-20T01:16:42.449Z,100528.88
2023-01-20T01:17:06.185Z,100535.94
2023-01-20T01:17:34.614Z,100526.28
2023-01-20T01:17:58.631Z,100508.94
2023-01-20T01:18:31.696Z,100533.31
2023-01-20T01:18:54.973Z,100536.78
2023-01-20T01:19:19.752Z,100538.50
2023-01-20T01:19:43.348Z,100538.56
2023-01-20T01:20:07.798Z,100515.91
2023-01-20T01:20:29.819Z,100535.00
2023-01-20T01:20:52.306Z,100532.44
2023-01-20T01:21:16.947Z,100538.50
2023-01-20T01:21:40.231Z,100463.59
2023-01-20T01:22:03.305Z,100544.59
2023-01-20T01:22:25.107Z,100535.81
2023-01-20T01:22:47.196Z,100491.44
2023-01-20T01:23:09.039Z,100540.19
2023-01-20T01:23:31.942Z,100528.84
2023-01-20T01:23:54.469Z,100427.91
2023-01-20T01:24:16.323Z,100462.66
2023-01-20T01:24:38.436Z,100548.03
2023-01-20T01:25:01.641Z,100541.06
2023-01-20T01:25:23.718Z,100540.19
2023-01-20T01:25:45.614Z,100547.28
2023-01-20T01:26:09.857Z,100541.16
2023-01-20T01:26:34.453Z,100504.59
2023-01-20T01:26:56.446Z,100542.03
2023-01-20T01:27:19.962Z,100483.78
2023-01-20T01:27:42.455Z,100551.66
2023-01-20T01:28:07.373Z,100448.94
2023-01-20T01:28:29.405Z,100549.91
2023-01-20T01:28:51.648Z,100528.25
2023-01-20T01:29:15.267Z,100545.53
2023-01-20T01:29:37.080Z,100486.28
2023-01-20T01:29:59.202Z,100550.75
2023-01-20T01:30:21.661Z,100477.75
2023-01-20T01:30:43.688Z,100510.72
2023-01-20T01:31:09.809Z,100546.34
2023-01-20T01:31:34.761Z,100548.97
2023-01-20T01:31:57.508Z,100523.78
2023-01-20T01:32:20.674Z,100544.59
2023-01-20T01:32:43.667Z,100548.97
2023-01-20T01:33:05.656Z,100551.59
2023-01-20T01:33:28.640Z,100547.22
2023-01-20T01:33:51.926Z,100495.78
2023-01-20T01:34:15.270Z,100543.69
2023-01-20T01:34:37.407Z,100552.47
2023-01-20T01:34:59.459Z,100546.31
2023-01-20T01:35:21.351Z,100554.19
2023-01-20T01:35:46.022Z,100449.81
2023-01-20T01:36:13.704Z,100554.25
2023-01-20T01:36:37.089Z,100549.03
2023-01-20T01:36:59.054Z,100548.09
2023-01-20T01:37:21.197Z,100556.00
2023-01-20T01:37:44.039Z,100546.41
2023-01-20T01:38:05.910Z,100542.09
2023-01-20T01:38:29.232Z,100556.88
2023-01-20T01:38:58.934Z,100557.72
2023-01-20T01:39:25.437Z,100556.88
2023-01-20T01:39:47.358Z,100555.97
2023-01-20T01:40:10.619Z,100544.63
2023-01-20T01:40:34.508Z,100555.22
2023-01-20T01:41:20.079Z,100568.41
2023-01-20T01:41:59.102Z,100552.69
2023-01-20T01:45:01.958Z,100423.06
2023-01-20T01:45:41.298Z,100511.03
2023-01-20T01:46:07.819Z,100500.59
2023-01-20T01:46:31.670Z,100506.72
2023-01-20T01:46:56.308Z,100518.06
2023-01-20T01:47:23.594Z,100449.41
2023-01-20T01:47:51.382Z,100545.13
2023-01-20T01:48:27.272Z,100553.81
2023-01-20T01:49:23.917Z,100551.22
2023-01-20T01:50:16.477Z,100560.06
2023-01-20T01:50:55.439Z,100528.72
2023-01-20T01:51:29.927Z,100561.81
2023-01-20T01:52:06.812Z,100565.31
2023-01-20T01:52:37.028Z,100558.25
2023-01-20T01:53:18.469Z,100558.25
2023-01-20T01:53:47.228Z,100563.50
2023-01-20T01:54:16.762Z,100568.75
2023-01-20T01:54:46.805Z,100563.44
2023-01-20T01:55:11.985Z,100559.09
2023-01-20T01:55:39.229Z,100559.91
2023-01-20T01:56:05.992Z,100565.16
2023-01-20T01:56:36.636Z,100559.91
2023-01-20T01:57:04.852Z,100562.50
2023-01-20T01:57:32.470Z,100475.47
2023-01-20T01:58:00.385Z,100566.06
2023-01-20T01:59:20.870Z,100568.69
2023-01-20T01:59:46.416Z,100566.94
2023-01-20T02:00:21.634Z,100573.16
2023-01-20T02:01:00.478Z,100565.25
2023-01-20T02:01:28.851Z,100573.16
2023-01-20T02:01:57.849Z,100578.41
2023-01-20T02:02:29.703Z,100571.34
2023-01-20T02:03:01.785Z,100571.34
2023-01-20T02:03:44.471Z,100575.72
2023-01-20T02:04:14.539Z,100568.69
2023-01-20T02:04:39.912Z,100568.69
2023-01-20T02:05:03.455Z,100573.97
2023-01-20T02:05:28.939Z,100569.56
2023-01-20T02:05:53.016Z,100532.22
2023-01-20T02:06:15.668Z,100538.31
2023-01-20T02:06:43.098Z,100418.03
2023-01-20T02:07:08.495Z,100571.34
2023-01-20T02:07:34.929Z,100563.44
2023-01-20T02:07:58.711Z,100568.69
2023-01-20T02:08:21.993Z,100548.66
2023-01-20T02:08:44.145Z,100571.28
2023-01-20T02:09:06.442Z,100555.59
2023-01-20T02:09:30.429Z,100539.94
2023-01-20T02:09:53.245Z,100573.91
2023-01-20T02:10:15.621Z,100572.19
2023-01-20T02:10:38.806Z,100565.25
2023-01-20T02:11:00.719Z,100574.78
2023-01-20T02:11:23.822Z,100573.03
2023-01-20T02:11:49.448Z,100509.41
2023-01-20T02:12:14.742Z,100548.63
2023-01-20T02:12:38.634Z,100576.53
2023-01-20T02:13:02.291Z,100575.59
2023-01-20T02:13:24.313Z,100568.56
2023-01-20T02:13:46.529Z,100512.91
2023-01-20T02:14:09.289Z,100557.28
2023-01-20T02:14:36.479Z,100572.09
2023-01-20T02:15:02.317Z,100569.50
2023-01-20T02:15:29.223Z,100574.78
2023-01-20T02:16:02.175Z,100548.59
2023-01-20T02:16:35.314Z,100575.66
2023-01-20T02:17:04.467Z,100572.16
2023-01-20T02:17:31.353Z,100553.91
2023-01-20T02:18:17.202Z,100575.72
2023-01-20T02:18:55.459Z,100563.44
2023-01-20T02:19:42.478Z,100541.75
2023-01-20T02:20:38.050Z,100573.06
2023-01-20T02:21:28.039Z,100577.53
2023-01-20T02:22:12.159Z,100537.50
2023-01-20T02:22:42.780Z,100570.56
2023-01-20T02:23:11.136Z,100519.25
2023-01-20T02:23:56.211Z,100577.56
2023-01-20T02:24:58.338Z,100584.66
2023-01-20T02:26:05.852Z,100589.91
2023-01-20T02:26:47.230Z,100508.91
2023-01-20T02:27:14.616Z,100594.31
2023-01-20T02:28:18.365Z,100585.50
2023-01-20T02:29:23.613Z,100568.25
2023-01-20T02:30:28.569Z,100592.66
2023-01-20T02:31:24.516Z,100597.03
2023-01-20T02:32:12.759Z,100591.78
2023-01-20T02:32:46.655Z,100523.88
2023-01-20T02:33:12.883Z,100470.78
2023-01-20T02:33:42.036Z,100596.16
2023-01-20T02:34:06.860Z,100600.53
2023-01-20T02:34:33.001Z,100588.38
2023-01-20T02:34:59.158Z,100610.19
2023-01-20T02:35:28.120Z,100604.91
2023-01-20T02:35:55.401Z,100597.84
2023-01-20T02:36:27.211Z,100602.25
2023-01-20T02:36:56.746Z,100582.22
2023-01-20T02:37:23.724Z,100587.44
2023-01-20T02:37:51.694Z,100613.66
2023-01-20T02:38:19.486Z,100603.13
2023-01-20T02:38:44.514Z,100598.72
2023-01-20T02:39:13.539Z,100599.72
2023-01-20T02:40:01.913Z,100612.81
2023-01-20T02:40:31.646Z,100562.28
2023-01-20T02:41:02.680Z,100605.81
2023-01-20T02:41:33.749Z,100604.09
2023-01-20T02:42:01.042Z,100599.69
2023-01-20T02:42:27.446Z,100609.31
2023-01-20T02:42:57.694Z,100601.47
2023-01-20T02:43:26.765Z,100612.88
2023-01-20T02:43:56.624Z,100603.22
2023-01-20T02:44:27.352Z,100605.00
2023-01-20T02:44:54.421Z,100614.63
2023-01-20T02:45:23.078Z,100605.03
2023-01-20T02:45:50.320Z,100601.53
2023-01-20T02:46:16.140Z,100597.25
2023-01-20T02:46:43.471Z,100571.06
2023-01-20T02:47:13.646Z,100606.84
2023-01-20T02:47:41.460Z,100603.34
2023-01-20T02:48:23.519Z,100551.03
2023-01-20T02:48:53.060Z,100602.41
2023-01-20T02:49:18.097Z,100545.84
2023-01-20T02:49:51.548Z,100606.78
2023-01-20T02:50:20.684Z,100602.41
2023-01-20T02:50:49.969Z,100563.31
2023-01-20T02:51:15.268Z,100551.06
2023-01-20T02:51:42.821Z,100603.28
2023-01-20T02:52:11.417Z,100608.56
2023-01-20T02:52:37.854Z,100463.09
2023-01-20T02:53:03.717Z,100610.31
2023-01-20T02:53:31.976Z,100600.72
2023-01-20T02:53:59.901Z,100610.31
2023-01-20T02:54:25.111Z,100610.31
2023-01-20T02:54:51.443Z,100611.19
2023-01-20T02:55:19.519Z,100591.13
2023-01-20T02:55:46.533Z,100584.13
2023-01-20T02:56:11.126Z,100599.78
2023-01-20T02:56:38.640Z,100545.75
2023-01-20T02:57:04.617Z,100612.81
2023-01-20T02:57:31.227Z,100610.25
2023-01-20T02:58:01.894Z,100538.84
2023-01-20T02:58:28.883Z,100615.50
2023-01-20T02:58:55.026Z,100599.84
2023-01-20T02:59:22.155Z,100583.22
2023-01-20T02:59:49.776Z,100598.16
2023-01-20T03:00:17.900Z,100614.56
2023-01-20T03:00:44.495Z,100563.97
2023-01-20T03:01:12.976Z,100619.84
2023-01-20T03:01:40.105Z,100600.66
2023-01-20T03:02:06.636Z,100625.94
2023-01-20T03:02:35.406Z,100559.66
2023-01-20T03:03:00.139Z,100571.88
2023-01-20T03:03:28.832Z,100618.97
2023-01-20T03:03:55.503Z,100619.84
2023-01-20T03:04:22.469Z,100626.88
2023-01-20T03:04:48.649Z,100623.34
2023-01-20T03:05:15.935Z,100630.38
2023-01-20T03:05:42.341Z,100618.09
2023-01-20T03:06:09.406Z,100612.88
2023-01-20T03:06:36.812Z,100629.44
2023-01-20T03:07:00.307Z,100619.78
2023-01-20T03:07:27.142Z,100623.28
2023-01-20T03:07:50.901Z,100638.22
2023-01-20T03:08:15.780Z,100625.97
2023-01-20T03:08:40.924Z,100622.47
2023-01-20T03:09:08.750Z,100619.84
2023-01-20T03:09:35.278Z,100628.59
2023-01-20T03:10:01.511Z,100621.59
2023-01-20T03:10:26.796Z,100628.59
2023-01-20T03:10:52.986Z,100605.91
2023-01-20T03:11:15.372Z,100630.38
2023-01-20T03:11:41.339Z,100625.09
2023-01-20T03:12:09.899Z,100619.06
2023-01-20T03:12:40.049Z,100548.41
2023-01-20T03:13:08.982Z,100594.56
2023-01-20T03:13:34.731Z,100628.59
2023-01-20T03:14:02.597Z,100537.06
2023-01-20T03:14:25.694Z,100626.84
2023-01-20T03:14:47.586Z,100621.59
2023-01-20T03:15:11.630Z,100624.16
2023-01-20T03:15:41.941Z,100631.19
2023-01-20T03:16:09.724Z,100624.19
2023-01-20T03:16:32.231Z,100631.19
2023-01-20T03:16:54.204Z,100628.56
2023-01-20T03:17:15.968Z,100626.81
2023-01-20T03:17:40.437Z,100630.28
2023-01-20T03:18:03.377Z,100633.81
2023-01-20T03:18:43.643Z,100627.63
2023-01-20T03:19:14.738Z,100629.38
2023-01-20T03:19:57.263Z,100618.91
2023-01-20T03:20:25.060Z,100627.69
2023-01-20T03:20:49.224Z,100624.22
2023-01-20T03:21:27.596Z,100631.25
2023-01-20T03:21:54.460Z,100637.44
2023-01-20T03:22:28.807Z,100627.84
2023-01-20T03:22:58.890Z,100627.88
2023-01-20T03:23:24.871Z,100627.91
2023-01-20T03:24:07.166Z,100637.50
2023-01-20T03:24:39.125Z,100635.75
2023-01-20T03:26:02.957Z,100641.00
2023-01-20T03:26:27.204Z,100633.06
2023-01-20T03:26:55.544Z,100641.00
2023-01-20T03:27:26.300Z,100636.56
2023-01-20T03:28:01.102Z,100635.69
2023-01-20T03:28:46.624Z,100637.44
2023-01-20T03:29:28.272Z,100633.91
2023-01-20T03:30:06.712Z,100642.66
2023-01-20T03:30:32.953Z,100633.84
2023-01-20T03:31:04.194Z,100618.16
2023-01-20T03:31:38.681Z,100638.22
2023-01-20T03:32:09.319Z,100604.34
2023-01-20T03:32:34.094Z,100602.53
2023-01-20T03:33:40.953Z,100639.97
2023-01-20T03:35:03.910Z,100641.78
2023-01-20T03:35:30.749Z,100646.13
2023-01-20T03:36:00.851Z,100601.69
2023-01-20T03:36:35.177Z,100624.38
2023-01-20T03:37:03.644Z,100617.38
2023-01-20T03:37:30.269Z,100640.91
2023-01-20T03:38:03.344Z,100640.84
2023-01-20T03:38:40.011Z,100652.19
2023-01-20T03:39:41.872Z,100632.94
2023-01-20T03:40:17.275Z,100633.81
2023-01-20T03:41:03.544Z,100618.97
2023-01-20T03:41:49.825Z,100643.41
2023-01-20T03:42:24.092Z,100577.25
2023-01-20T03:43:06.632Z,100640.78
2023-01-20T03:43:46.625Z,100633.78
2023-01-20T03:44:34.599Z,100612.00
2023-01-20T03:45:09.008Z,100641.66
2023-01-20T03:46:01.652Z,100640.78
2023-01-20T03:46:44.572Z,100639.03
2023-01-20T03:47:25.579Z,100645.19
2023-01-20T03:48:14.411Z,100645.16
2023-01-20T03:48:46.221Z,100638.09
2023-01-20T03:49:37.730Z,100633.00
2023-01-20T03:50:38.223Z,100640.75
2023-01-20T03:51:22.716Z,100634.59
2023-01-20T03:52:03.490Z,100635.53
2023-01-20T03:52:47.655Z,100646.00
2023-01-20T03:53:29.723Z,100653.06
2023-01-20T03:54:17.411Z,100647.75
2023-01-20T03:55:01.367Z,100646.00
2023-01-20T03:55:31.810Z,100583.22
2023-01-20T03:56:02.440Z,100647.69
2023-01-20T03:57:59.689Z,100631.19
2023-01-20T03:58:40.272Z,100654.72
2023-01-20T03:59:24.303Z,100651.22
2023-01-20T03:59:50.087Z,100644.19
2023-01-20T04:00:13.336Z,100631.25
2023-01-20T04:00:38.009Z,100653.91
2023-01-20T04:01:16.024Z,100591.13
2023-01-20T04:01:43.832Z,100655.66
2023-01-20T04:02:08.733Z,100651.31
2023-01-20T04:02:33.505Z,100653.94
2023-01-20T04:02:57.349Z,100648.69
2023-01-20T04:03:26.761Z,100604.22
2023-01-20T04:03:52.851Z,100609.47
2023-01-20T04:04:19.090Z,100664.44
2023-01-20T04:04:43.295Z,100631.25
2023-01-20T04:05:07.181Z,100657.41
2023-01-20T04:05:30.339Z,100652.13
2023-01-20T04:05:53.369Z,100656.53
2023-01-20T04:06:17.607Z,100650.41
2023-01-20T04:06:43.899Z,100658.34
2023-01-20T04:07:06.846Z,100649.50
2023-01-20T04:07:33.260Z,100623.47
2023-01-20T04:07:57.915Z,100628.63
2023-01-20T04:08:23.012Z,100651.28
2023-01-20T04:08:51.571Z,100653.91
2023-01-20T04:09:18.709Z,100614.75
2023-01-20T04:09:46.048Z,100653.06
2023-01-20T04:10:12.954Z,100649.56
2023-01-20T04:10:43.754Z,100579.16
2023-01-20T04:11:08.838Z,100656.66
2023-01-20T04:11:32.355Z,100649.63
2023-01-20T04:11:55.852Z,100652.25
2023-01-20T04:12:20.266Z,100656.66
2023-01-20T04:12:42.795Z,100661.03
2023-01-20T04:13:04.635Z,100654.88
2023-01-20T04:13:26.894Z,100562.50
2023-01-20T04:13:51.474Z,100651.38
2023-01-20T04:14:13.367Z,100654.88
2023-01-20T04:14:36.712Z,100658.41
2023-01-20T04:15:00.462Z,100653.13
2023-01-20T04:15:26.932Z,100658.41
2023-01-20T04:15:50.611Z,100644.47
2023-01-20T04:16:16.631Z,100658.38
2023-01-20T04:16:39.325Z,100661.84
2023-01-20T04:17:08.011Z,100578.13
2023-01-20T04:17:30.763Z,100640.09
2023-01-20T04:17:52.701Z,100656.53
2023-01-20T04:18:16.642Z,100654.78
2023-01-20T04:18:45.108Z,100660.03
2023-01-20T04:19:08.351Z,100656.53
2023-01-20T04:19:30.918Z,100657.47
2023-01-20T04:19:55.041Z,100653.94
2023-01-20T04:20:39.951Z,100655.72
2023-01-20T04:21:06.191Z,100657.50
2023-01-20T04:22:54.163Z,100663.66
2023-01-20T04:23:27.907Z,100653.13
2023-01-20T04:24:08.995Z,100660.16
2023-01-20T04:24:36.192Z,100660.13
2023-01-20T04:25:07.605Z,100661.03
2023-01-20T04:25:49.658Z,100661.91
2023-01-20T04:26:19.142Z,100659.22
2023-01-20T04:26:45.885Z,100669.75
2023-01-20T04:27:13.033Z,100664.50
2023-01-20T04:27:42.412Z,100666.25
2023-01-20T04:28:14.548Z,100662.72
2023-01-20T04:29:27.593Z,100669.75
2023-01-20T04:30:01.593Z,100666.25
2023-01-20T04:30:37.844Z,100663.59
2023-01-20T04:31:25.030Z,100660.97
2023-01-20T04:32:04.959Z,100668.81
2023-01-20T04:32:36.199Z,100665.38
2023-01-20T04:33:09.197Z,100668.00
2023-01-20T04:34:22.942Z,100663.66
2023-01-20T04:35:13.316Z,100670.75
2023-01-20T04:36:55.043Z,100668.91
2023-01-20T04:37:27.934Z,100651.47
2023-01-20T04:37:55.575Z,100665.38
2023-01-20T04:38:27.137Z,100635.69
2023-01-20T04:38:54.241Z,100665.34
2023-01-20T04:39:25.325Z,100639.19
2023-01-20T04:39:57.869Z,100675.00
2023-01-20T04:40:25.493Z,100669.69
2023-01-20T04:41:02.107Z,100663.66
2023-01-20T04:41:37.289Z,100669.75
2023-01-20T04:42:04.016Z,100682.03
2023-01-20T04:42:30.236Z,100670.56
2023-01-20T04:42:58.167Z,100663.66
2023-01-20T04:43:33.603Z,100676.75
2023-01-20T04:44:10.577Z,100666.25
2023-01-20T04:44:32.992Z,100681.97
2023-01-20T04:45:06.558Z,100674.97
2023-01-20T04:45:32.676Z,100674.94
2023-01-20T04:46:01.252Z,100681.06
2023-01-20T04:46:40.886Z,100675.84
2023-01-20T04:47:07.108Z,100681.91
2023-01-20T04:47:36.476Z,100667.06
2023-01-20T04:48:11.092Z,100679.22
2023-01-20T04:49:15.179Z,100679.22
2023-01-20T04:49:57.090Z,100682.75
2023-01-20T04:50:34.779Z,100687.09
2023-01-20T04:50:58.842Z,100681.00
2023-01-20T04:51:44.101Z,100684.50
2023-01-20T04:52:11.865Z,100694.16
2023-01-20T04:52:43.628Z,100649.72
2023-01-20T04:53:14.451Z,100683.78
2023-01-20T04:53:56.164Z,100684.63
2023-01-20T04:54:30.101Z,100684.66
2023-01-20T04:55:01.971Z,100686.41
2023-01-20T04:55:28.465Z,100687.25
2023-01-20T04:56:03.215Z,100676.81
2023-01-20T04:56:39.862Z,100684.63
2023-01-20T04:57:15.950Z,100684.59
2023-01-20T04:57:52.625Z,100686.38
2023-01-20T04:58:21.946Z,100690.75
2023-01-20T04:58:51.113Z,100685.47
2023-01-20T04:59:16.185Z,100689.00
2023-01-20T04:59:43.601Z,100692.47
2023-01-20T05:00:21.193Z,100684.56
2023-01-20T05:00:49.452Z,100683.69
2023-01-20T05:01:15.792Z,100683.69
2023-01-20T05:01:48.368Z,100682.81
2023-01-20T05:02:20.053Z,100686.25
2023-01-20T05:02:44.371Z,100687.13
2023-01-20T05:03:08.832Z,100689.72
2023-01-20T05:03:36.113Z,100683.56
2023-01-20T05:04:18.702Z,100679.22
2023-01-20T05:04:45.230Z,100679.22
2023-01-20T05:05:10.649Z,100695.03
2023-01-20T05:05:47.795Z,100691.53
2023-01-20T05:06:19.306Z,100694.09
2023-01-20T05:07:08.417Z,100691.53
2023-01-20T05:07:41.972Z,100683.66
2023-01-20T05:08:07.481Z,100687.13
2023-01-20T05:08:31.978Z,100695.91
2023-01-20T05:09:02.098Z,100692.38
2023-01-20T05:09:27.891Z,100693.28
2023-01-20T05:09:55.202Z,100687.13
2023-01-20T05:10:24.091Z,100689.72
2023-01-20T05:10:49.798Z,100691.50
2023-01-20T05:11:15.437Z,100675.78
2023-01-20T05:11:40.480Z,100687.06
2023-01-20T05:12:11.932Z,100698.44
2023-01-20T05:12:34.089Z,100694.06
2023-01-20T05:12:56.091Z,100637.34
2023-01-20T05:13:20.849Z,100691.41
2023-01-20T05:13:43.168Z,100687.91
2023-01-20T05:14:08.546Z,100686.22
2023-01-20T05:14:30.250Z,100687.13
2023-01-20T05:14:53.717Z,100687.91
2023-01-20T05:15:15.892Z,100694.03
2023-01-20T05:15:41.103Z,100695.78
2023-01-20T05:16:03.271Z,100688.78
2023-01-20T05:16:31.857Z,100688.78
2023-01-20T05:16:55.047Z,100694.88
2023-01-20T05:17:17.274Z,100692.22
2023-01-20T05:17:39.057Z,100699.25
2023-01-20T05:18:01.000Z,100692.22
2023-01-20T05:18:24.350Z,100694.84
2023-01-20T05:18:48.014Z,100689.84
2023-01-20T05:19:11.719Z,100689.06
2023-01-20T05:19:34.999Z,100685.53
2023-01-20T05:19:57.033Z,100689.88
2023-01-20T05:20:20.782Z,100628.84
2023-01-20T05:20:45.168Z,100695.09
2023-01-20T05:21:09.812Z,100696.00
2023-01-20T05:21:32.091Z,100634.19
2023-01-20T05:21:55.048Z,100695.19
2023-01-20T05:22:16.905Z,100686.38
2023-01-20T05:22:38.884Z,100696.00
2023-01-20T05:23:01.547Z,100677.69
2023-01-20T05:23:25.728Z,100683.66
2023-01-20T05:23:48.620Z,100689.78
2023-01-20T05:24:10.697Z,100692.41
2023-01-20T05:24:32.833Z,100697.66
2023-01-20T05:24:55.621Z,100695.03
2023-01-20T05:25:19.483Z,100692.34
2023-01-20T05:25:41.223Z,100694.09
2023-01-20T05:26:03.064Z,100696.75
2023-01-20T05:26:26.833Z,100679.28
2023-01-20T05:26:48.571Z,100687.13
2023-01-20T05:27:10.804Z,100688.00
2023-01-20T05:27:34.827Z,100693.22
2023-01-20T05:27:58.104Z,100697.56
2023-01-20T05:28:21.913Z,100696.66
2023-01-20T05:28:45.531Z,100699.25
2023-01-20T05:29:07.686Z,100652.19
2023-01-20T05:29:31.175Z,100695.75
2023-01-20T05:29:53.084Z,100701.88
2023-01-20T05:30:16.040Z,100680.88
2023-01-20T05:30:38.659Z,100705.34
2023-01-20T05:31:01.911Z,100704.47
2023-01-20T05:31:24.207Z,100607.66
2023-01-20T05:31:46.194Z,100652.16
2023-01-20T05:32:10.319Z,100709.72
2023-01-20T05:32:33.977Z,100701.78
2023-01-20T05:32:56.492Z,100705.31
2023-01-20T05:33:19.170Z,100700.00
2023-01-20T05:33:42.067Z,100703.53
2023-01-20T05:34:11.502Z,100706.16
2023-01-20T05:34:38.694Z,100699.19
2023-01-20T05:35:06.644Z,100707.03
2023-01-20T05:35:51.239Z,100704.34
2023-01-20T05:36:17.674Z,100707.91
2023-01-20T05:36:42.550Z,100707.88
2023-01-20T05:37:06.420Z,100713.16
2023-01-20T05:37:34.658Z,100605.91